createdAt,value
2019-06-27T00:02:06.555Z,97788.86
2019-06-27T00:04:37.106Z,97781.23
2019-06-27T00:07:07.412Z,97782.58
2019-06-27T00:09:37.755Z,97779.01
2019-06-27T00:12:08.907Z,97771.41
2019-06-27T00:14:39.190Z,97770.06
2019-06-27T00:17:09.537Z,97773.61
2019-06-27T00:19:40.840Z,97773.25
2019-06-27T00:22:11.069Z,97774.59
2019-06-27T00:24:41.234Z,97770.91
2019-06-27T00:27:11.551Z,97766.97
2019-06-27T00:29:41.886Z,97765.63
2019-06-27T00:32:12.490Z,97764.66
2019-06-27T00:34:42.834Z,97762.92
2019-06-27T00:37:13.159Z,97762.92
2019-06-27T00:39:43.444Z,97766.10
2019-06-27T00:42:13.734Z,97770.55
2019-06-27T00:44:43.928Z,97767.96
2019-06-27T00:47:14.245Z,97767.45
2019-06-27T00:49:45.493Z,97765.74
2019-06-27T00:52:15.781Z,97771.02
2019-06-27T00:54:46.105Z,97765.27
2019-06-27T00:57:16.471Z,97764.75
2019-06-27T00:59:46.753Z,97765.63
2019-06-27T01:02:17.074Z,97766.10
2019-06-27T01:04:47.508Z,97772.02
2019-06-27T01:07:17.853Z,97761.30
2019-06-27T01:09:49.123Z,97754.94
2019-06-27T01:12:19.593Z,97754.06
2019-06-27T01:14:50.043Z,97756.77
2019-06-27T01:17:20.438Z,97750.88
2019-06-27T01:19:50.887Z,97741.55
2019-06-27T01:22:21.390Z,97741.91
2019-06-27T01:24:51.704Z,97739.20
2019-06-27T01:27:29.990Z,97748.30
2019-06-27T01:29:55.230Z,97748.30
2019-06-27T01:32:25.570Z,97748.66
2019-06-27T01:34:55.761Z,97742.38
2019-06-27T01:37:26.051Z,97746.95
2019-06-27T01:39:56.417Z,97741.55
2019-06-27T01:42:26.865Z,97749.66
2019-06-27T01:45:19.212Z,97743.38
2019-06-27T01:47:49.527Z,97740.19
2019-06-27T01:50:19.863Z,97739.80
2019-06-27T01:52:50.273Z,97746.55
2019-06-27T01:55:20.847Z,97743.85
2019-06-27T01:57:51.161Z,97751.96
2019-06-27T02:00:21.547Z,97747.03
2019-06-27T02:02:51.802Z,97747.91
2019-06-27T02:05:22.072Z,97741.63
2019-06-27T02:07:52.339Z,97741.16
2019-06-27T02:10:22.999Z,97742.50
2019-06-27T02:12:53.149Z,97746.55
2019-06-27T02:15:24.218Z,97741.63
2019-06-27T02:17:54.506Z,97732.69
2019-06-27T02:20:24.786Z,97739.44
2019-06-27T02:22:55.142Z,97738.09
2019-06-27T02:25:25.491Z,97742.63
2019-06-27T02:28:03.813Z,97741.63
2019-06-27T02:30:39.008Z,97742.63
2019-06-27T02:33:09.302Z,97739.92
2019-06-27T02:35:39.691Z,97730.95
2019-06-27T02:38:10.098Z,97735.00
2019-06-27T02:40:40.557Z,97735.88
2019-06-27T02:43:10.870Z,97729.11
2019-06-27T02:45:41.301Z,97734.12
2019-06-27T02:48:11.868Z,97735.88
2019-06-27T02:50:42.207Z,97735.00
2019-06-27T02:53:12.540Z,97734.12
2019-06-27T02:55:42.855Z,97739.05
2019-06-27T02:58:29.612Z,97731.06
2019-06-27T03:00:45.298Z,97733.29
2019-06-27T03:03:15.850Z,97731.94
2019-06-27T03:05:46.192Z,97731.06
2019-06-27T03:08:16.643Z,97725.66
2019-06-27T03:10:47.820Z,97726.14
2019-06-27T03:13:18.022Z,97724.80
2019-06-27T03:15:48.340Z,97723.92
2019-06-27T03:18:19.552Z,97722.09
2019-06-27T03:20:50.107Z,97726.62
2019-06-27T03:23:20.305Z,97727.49
2019-06-27T03:25:50.722Z,97730.20
2019-06-27T03:28:21.148Z,97725.27
2019-06-27T03:30:51.445Z,97730.67
2019-06-27T03:33:22.814Z,97729.84
2019-06-27T03:35:53.070Z,97724.44
2019-06-27T03:38:23.470Z,97720.73
2019-06-27T03:40:53.828Z,97725.78
2019-06-27T03:43:24.256Z,97720.73
2019-06-27T03:45:54.639Z,97720.38
2019-06-27T03:48:25.936Z,97721.34
2019-06-27T03:50:56.559Z,97722.21
2019-06-27T03:53:27.783Z,97719.98
2019-06-27T03:55:58.186Z,97719.12
2019-06-27T03:58:28.528Z,97717.29
2019-06-27T04:00:58.889Z,97718.16
2019-06-27T04:03:29.386Z,97713.72
2019-06-27T04:05:59.716Z,97714.59
2019-06-27T04:08:30.237Z,97712.37
2019-06-27T04:11:00.523Z,97710.53
2019-06-27T04:13:30.880Z,97718.64
2019-06-27T04:16:01.254Z,97716.42
2019-06-27T04:18:31.461Z,97713.72
2019-06-27T04:21:01.763Z,97708.83
2019-06-27T04:23:32.319Z,97711.89
2019-06-27T04:26:08.511Z,97704.77
2019-06-27T04:28:39.114Z,97704.26
2019-06-27T04:31:09.303Z,97704.77
2019-06-27T04:33:39.640Z,97704.26
2019-06-27T04:36:09.920Z,97698.02
2019-06-27T04:38:40.220Z,97699.37
2019-06-27T04:41:10.771Z,97697.15
2019-06-27T04:43:41.172Z,97697.15
2019-06-27T04:46:11.402Z,97702.08
2019-06-27T04:48:41.853Z,97698.66
2019-06-27T04:51:12.095Z,97697.72
2019-06-27T04:53:42.668Z,97700.00
2019-06-27T04:56:13.320Z,97702.19
2019-06-27T04:58:43.629Z,97697.50
2019-06-27T05:01:13.895Z,97693.45
2019-06-27T05:03:44.317Z,97692.86
2019-06-27T05:06:14.607Z,97684.25
2019-06-27T05:08:44.860Z,97685.48
2019-06-27T05:11:15.231Z,97683.77
2019-06-27T05:13:45.679Z,97678.84
2019-06-27T05:16:16.019Z,97677.50
2019-06-27T05:18:46.547Z,97675.79
2019-06-27T05:21:17.359Z,97680.95
2019-06-27T05:23:47.802Z,97674.47
2019-06-27T05:26:18.021Z,97670.69
2019-06-27T05:28:48.347Z,97662.59
2019-06-27T05:31:18.626Z,97663.81
2019-06-27T05:33:48.969Z,97657.94
2019-06-27T05:36:19.366Z,97658.77
2019-06-27T05:38:49.658Z,97656.59
2019-06-27T05:41:19.866Z,97653.77
2019-06-27T05:43:50.239Z,97655.98
2019-06-27T05:46:20.684Z,97656.34
2019-06-27T05:48:51.019Z,97649.11
2019-06-27T05:51:21.321Z,97650.82
2019-06-27T05:53:51.586Z,97654.39
2019-06-27T05:56:21.873Z,97646.77
2019-06-27T05:58:52.421Z,97644.94
2019-06-27T06:01:22.663Z,97644.58
2019-06-27T06:03:52.923Z,97645.54
2019-06-27T06:06:23.212Z,97640.27
2019-06-27T06:08:53.468Z,97643.31
2019-06-27T06:11:23.833Z,97643.23
2019-06-27T06:13:54.170Z,97639.53
2019-06-27T06:16:24.648Z,97640.77
2019-06-27T06:18:55.071Z,97635.75
2019-06-27T06:21:25.303Z,97636.98
2019-06-27T06:23:55.657Z,97638.20
2019-06-27T06:26:25.988Z,97635.03
2019-06-27T06:28:56.404Z,97630.86
2019-06-27T06:31:26.802Z,97626.33
2019-06-27T06:33:57.189Z,97622.66
2019-06-27T06:36:27.449Z,97623.41
2019-06-27T06:38:57.804Z,97619.36
2019-06-27T06:41:28.209Z,97619.36
2019-06-27T06:43:58.557Z,97610.73
2019-06-27T06:46:28.788Z,97611.61
2019-06-27T06:48:59.079Z,97609.78
2019-06-27T06:51:29.396Z,97609.30
2019-06-27T06:53:59.820Z,97612.36
2019-06-27T06:56:30.266Z,97600.69
2019-06-27T06:59:00.637Z,97608.30
2019-06-27T07:01:30.957Z,97594.80
2019-06-27T07:04:01.206Z,97592.09
2019-06-27T07:06:31.676Z,97594.31
2019-06-27T07:09:02.004Z,97594.31
2019-06-27T07:11:33.434Z,97587.56
2019-06-27T07:14:03.833Z,97591.97
2019-06-27T07:16:34.296Z,97590.14
2019-06-27T07:19:04.681Z,97583.39
2019-06-27T07:21:34.971Z,97586.09
2019-06-27T07:24:05.289Z,97586.52
2019-06-27T07:26:35.687Z,97585.64
2019-06-27T07:29:06.030Z,97587.86
2019-06-27T07:31:36.400Z,97579.25
2019-06-27T07:34:06.778Z,97574.71
2019-06-27T07:36:36.985Z,97573.36
2019-06-27T07:39:07.380Z,97573.36
2019-06-27T07:41:37.811Z,97574.23
2019-06-27T07:44:08.087Z,97571.53
2019-06-27T07:46:38.454Z,97571.53
2019-06-27T07:49:09.821Z,97569.70
2019-06-27T07:51:40.238Z,97568.34
2019-06-27T07:54:10.671Z,97557.54
2019-06-27T07:56:41.030Z,97559.73
2019-06-27T07:59:11.224Z,97555.67
2019-06-27T08:01:41.648Z,97547.58
2019-06-27T08:04:12.044Z,97545.26
2019-06-27T08:06:42.395Z,97543.43
2019-06-27T08:09:12.840Z,97546.61
2019-06-27T08:11:43.086Z,97537.64
2019-06-27T08:14:13.380Z,97539.37
2019-06-27T08:16:43.794Z,97546.13
2019-06-27T08:19:14.198Z,97538.86
2019-06-27T08:21:44.534Z,97529.92
2019-06-27T08:24:14.831Z,97523.17
2019-06-27T08:26:45.099Z,97520.82
2019-06-27T08:29:15.418Z,97513.20
2019-06-27T08:31:51.419Z,97511.84
2019-06-27T08:34:17.671Z,97513.58
2019-06-27T08:36:48.115Z,97515.42
2019-06-27T08:39:18.439Z,97510.88
2019-06-27T08:41:48.830Z,97506.83
2019-06-27T08:44:19.070Z,97503.64
2019-06-27T08:46:49.382Z,97505.84
2019-06-27T08:49:19.746Z,97504.00
2019-06-27T08:51:50.066Z,97501.30
2019-06-27T08:54:20.432Z,97490.97
2019-06-27T08:56:50.716Z,97492.71
2019-06-27T08:59:21.125Z,97488.18
2019-06-27T09:02:07.043Z,97484.13
2019-06-27T09:04:23.478Z,97482.27
2019-06-27T09:06:53.649Z,97484.13
2019-06-27T09:09:23.956Z,97478.59
2019-06-27T09:11:54.352Z,97479.08
2019-06-27T09:14:24.534Z,97478.59
2019-06-27T09:16:55.030Z,97473.67
2019-06-27T09:19:25.368Z,97475.02
2019-06-27T09:21:55.891Z,97468.75
2019-06-27T09:24:26.136Z,97468.66
2019-06-27T09:26:56.328Z,97463.25
2019-06-27T09:29:26.612Z,97469.49
2019-06-27T09:31:57.067Z,97468.66
2019-06-27T09:34:27.495Z,97465.44
2019-06-27T09:36:58.255Z,97466.31
2019-06-27T09:39:28.460Z,97468.88
2019-06-27T09:41:58.880Z,97468.53
2019-06-27T09:44:29.380Z,97470.75
2019-06-27T09:46:59.733Z,97466.18
2019-06-27T09:49:30.035Z,97466.70
2019-06-27T09:52:00.311Z,97468.05
2019-06-27T09:54:30.610Z,97470.14
2019-06-27T09:57:00.930Z,97463.86
2019-06-27T09:59:31.343Z,97462.52
2019-06-27T10:02:01.654Z,97462.52
2019-06-27T10:04:32.029Z,97462.52
2019-06-27T10:07:02.327Z,97457.11
2019-06-27T10:09:32.646Z,97458.46
2019-06-27T10:12:02.995Z,97458.81
2019-06-27T10:14:33.374Z,97452.93
2019-06-27T10:17:03.791Z,97444.47
2019-06-27T10:19:34.116Z,97441.77
2019-06-27T10:22:06.426Z,97443.47
2019-06-27T10:24:36.740Z,97442.13
2019-06-27T10:27:07.035Z,97446.56
2019-06-27T10:29:38.424Z,97433.05
2019-06-27T10:32:08.812Z,97432.19
2019-06-27T10:34:39.069Z,97430.35
2019-06-27T10:37:09.470Z,97428.48
2019-06-27T10:39:39.716Z,97426.30
2019-06-27T10:42:10.153Z,97424.43
2019-06-27T10:44:40.489Z,97421.25
2019-06-27T10:47:10.765Z,97425.30
2019-06-27T10:49:41.088Z,97422.59
2019-06-27T10:52:11.497Z,97427.52
2019-06-27T10:54:41.965Z,97423.47
2019-06-27T10:57:12.339Z,97421.63
2019-06-27T10:59:42.691Z,97417.94
2019-06-27T11:02:12.993Z,97420.15
2019-06-27T11:04:43.270Z,97413.88
2019-06-27T11:07:13.532Z,97416.97
2019-06-27T11:09:43.883Z,97414.27
2019-06-27T11:12:14.217Z,97397.18
2019-06-27T11:14:58.278Z,97401.11
2019-06-27T11:17:16.576Z,97402.11
2019-06-27T11:19:52.312Z,97394.00
2019-06-27T11:22:20.716Z,97393.48
2019-06-27T11:24:50.959Z,97391.64
2019-06-27T11:27:21.191Z,97379.48
2019-06-27T11:29:51.598Z,97386.24
2019-06-27T11:32:22.037Z,97386.63
2019-06-27T11:34:52.316Z,97382.19
2019-06-27T11:37:22.773Z,97376.30
2019-06-27T11:39:53.087Z,97379.00
2019-06-27T11:42:23.381Z,97372.12
2019-06-27T11:44:53.636Z,97369.90
2019-06-27T11:47:23.904Z,97367.58
2019-06-27T11:50:00.316Z,97364.39
2019-06-27T11:52:30.560Z,97356.77
2019-06-27T11:55:00.787Z,97358.47
2019-06-27T11:57:32.031Z,97355.29
2019-06-27T12:00:02.245Z,97350.27
2019-06-27T12:02:33.621Z,97337.24
2019-06-27T12:05:03.800Z,97342.52
2019-06-27T12:07:34.090Z,97344.73
2019-06-27T12:10:04.683Z,97341.16
2019-06-27T12:12:34.847Z,97336.14
2019-06-27T12:15:05.331Z,97341.55
2019-06-27T12:17:35.536Z,97331.22
2019-06-27T12:20:06.451Z,97330.22
2019-06-27T12:22:36.597Z,97327.52
2019-06-27T12:25:08.019Z,97325.33
2019-06-27T12:27:38.262Z,97322.98
2019-06-27T12:30:10.682Z,97318.92
2019-06-27T12:32:51.784Z,97315.74
2019-06-27T12:35:13.030Z,97312.04
2019-06-27T12:37:43.184Z,97296.34
2019-06-27T12:40:13.344Z,97295.82
2019-06-27T12:42:43.556Z,97285.88
2019-06-27T12:45:13.718Z,97281.83
2019-06-27T12:47:43.967Z,97278.64
2019-06-27T12:50:14.637Z,97279.51
2019-06-27T12:52:44.820Z,97278.02
2019-06-27T12:55:14.986Z,97265.37
2019-06-27T12:57:45.231Z,97254.18
2019-06-27T13:00:15.667Z,97246.45
2019-06-27T13:02:46.042Z,97243.23
2019-06-27T13:05:16.216Z,97238.70
2019-06-27T13:07:46.371Z,97232.81
2019-06-27T13:10:16.528Z,97228.75
2019-06-27T13:12:47.895Z,97225.19
2019-06-27T13:15:18.203Z,97222.34
2019-06-27T13:17:48.455Z,97216.11
2019-06-27T13:20:18.849Z,97214.62
2019-06-27T13:22:48.995Z,97215.48
2019-06-27T13:25:19.171Z,97210.08
2019-06-27T13:27:49.334Z,97204.16
2019-06-27T13:30:19.715Z,97201.45
2019-06-27T13:32:50.054Z,97211.30
2019-06-27T13:35:20.191Z,97200.97
2019-06-27T13:37:50.372Z,97213.52
2019-06-27T13:40:20.508Z,97213.38
2019-06-27T13:42:50.857Z,97216.56
2019-06-27T13:45:20.994Z,97221.00
2019-06-27T13:47:51.175Z,97211.89
2019-06-27T13:50:21.308Z,97206.48
2019-06-27T13:52:54.624Z,97201.95
2019-06-27T13:55:24.306Z,97204.65
2019-06-27T13:57:57.466Z,97200.45
2019-06-27T14:00:38.301Z,97188.29
2019-06-27T14:03:09.607Z,97186.94
2019-06-27T14:05:39.836Z,97185.10
2019-06-27T14:08:10.179Z,97180.56
2019-06-27T14:10:40.634Z,97181.92
2019-06-27T14:13:11.102Z,97192.73
2019-06-27T14:15:41.247Z,97195.43
2019-06-27T14:18:11.469Z,97184.62
2019-06-27T14:20:41.638Z,97183.27
2019-06-27T14:23:11.777Z,97184.62
2019-06-27T14:25:41.952Z,97191.38
2019-06-27T14:28:12.089Z,97196.78
2019-06-27T14:30:42.264Z,97193.56
2019-06-27T14:33:12.396Z,97186.70
2019-06-27T14:35:42.992Z,97186.70
2019-06-27T14:38:13.139Z,97184.48
2019-06-27T14:40:45.007Z,97179.08
2019-06-27T14:43:15.140Z,97170.48
2019-06-27T14:45:45.320Z,97170.83
2019-06-27T14:48:15.450Z,97172.66
2019-06-27T14:50:45.582Z,97185.70
2019-06-27T14:53:15.724Z,97213.11
2019-06-27T14:55:45.896Z,97232.03
2019-06-27T14:58:16.750Z,97243.33
2019-06-27T15:00:46.947Z,97255.36
2019-06-27T15:03:17.230Z,97261.25
2019-06-27T15:05:47.372Z,97268.88
2019-06-27T15:08:17.540Z,97269.75
2019-06-27T15:10:47.678Z,97265.30
2019-06-27T15:13:17.846Z,97259.06
2019-06-27T15:15:47.983Z,97260.42
2019-06-27T15:18:18.220Z,97260.91
2019-06-27T15:20:48.396Z,97262.61
2019-06-27T15:23:18.557Z,97267.52
2019-06-27T15:25:48.721Z,97264.47
2019-06-27T15:28:18.932Z,97268.88
2019-06-27T15:30:49.106Z,97264.34
2019-06-27T15:33:20.315Z,97260.77
2019-06-27T15:35:52.480Z,97264.83
2019-06-27T15:38:22.320Z,97274.15
2019-06-27T15:40:55.298Z,97274.67
2019-06-27T15:43:24.407Z,97285.48
2019-06-27T15:45:54.541Z,97297.13
2019-06-27T15:48:24.702Z,97300.35
2019-06-27T15:50:54.949Z,97305.76
2019-06-27T15:53:25.150Z,97306.11
2019-06-27T15:55:55.315Z,97295.78
2019-06-27T15:58:25.470Z,97291.72
2019-06-27T16:00:55.692Z,97292.23
2019-06-27T16:03:25.868Z,97303.89
2019-06-27T16:06:08.644Z,97294.94
2019-06-27T16:08:27.899Z,97296.30
2019-06-27T16:10:58.035Z,97291.38
2019-06-27T16:13:28.196Z,97298.62
2019-06-27T16:15:58.340Z,97293.08
2019-06-27T16:18:28.503Z,97289.88
2019-06-27T16:20:58.640Z,97293.08
2019-06-27T16:23:28.784Z,97293.94
2019-06-27T16:25:58.949Z,97285.83
2019-06-27T16:28:29.112Z,97289.02
2019-06-27T16:30:59.272Z,97294.81
2019-06-27T16:33:29.419Z,97283.99
2019-06-27T16:35:59.604Z,97283.12
2019-06-27T16:38:29.743Z,97282.26
2019-06-27T16:40:59.886Z,97285.34
2019-06-27T16:43:30.027Z,97289.53
2019-06-27T16:46:00.164Z,97302.05
2019-06-27T16:48:30.303Z,97314.70
2019-06-27T16:51:00.473Z,97323.81
2019-06-27T16:53:30.720Z,97330.09
2019-06-27T16:56:00.945Z,97338.20
2019-06-27T16:58:31.080Z,97341.39
2019-06-27T17:01:01.253Z,97338.69
2019-06-27T17:03:31.487Z,97323.81
2019-06-27T17:06:01.746Z,97323.95
2019-06-27T17:08:31.970Z,97331.06
2019-06-27T17:11:02.154Z,97341.87
2019-06-27T17:13:32.356Z,97343.61
2019-06-27T17:16:02.498Z,97335.98
2019-06-27T17:18:32.669Z,97328.35
2019-06-27T17:21:02.810Z,97323.08
2019-06-27T17:23:32.957Z,97323.43
2019-06-27T17:26:11.500Z,97337.47
2019-06-27T17:28:37.729Z,97345.58
2019-06-27T17:31:07.893Z,97357.73
2019-06-27T17:33:38.101Z,97351.47
2019-06-27T17:36:08.611Z,97342.88
2019-06-27T17:38:39.025Z,97344.70
2019-06-27T17:41:09.379Z,97333.03
2019-06-27T17:43:41.452Z,97324.43
2019-06-27T17:46:11.424Z,97319.02
2019-06-27T17:48:41.569Z,97315.45
2019-06-27T17:51:11.746Z,97310.05
2019-06-27T17:53:41.893Z,97309.56
2019-06-27T17:56:12.247Z,97300.59
2019-06-27T17:58:42.479Z,97286.20
2019-06-27T18:01:13.116Z,97289.64
2019-06-27T18:03:43.347Z,97287.31
2019-06-27T18:06:13.522Z,97288.40
2019-06-27T18:08:43.726Z,97294.53
2019-06-27T18:11:14.881Z,97303.77
2019-06-27T18:13:45.071Z,97289.24
2019-06-27T18:16:16.826Z,97277.08
2019-06-27T18:18:47.025Z,97286.44
2019-06-27T18:21:17.153Z,97295.38
2019-06-27T18:23:47.345Z,97286.78
2019-06-27T18:26:17.525Z,97277.73
2019-06-27T18:28:47.674Z,97289.48
2019-06-27T18:31:17.969Z,97282.28
2019-06-27T18:33:48.115Z,97291.25
2019-06-27T18:36:18.347Z,97290.73
2019-06-27T18:38:48.664Z,97299.37
2019-06-27T18:41:19.084Z,97301.55
2019-06-27T18:43:51.042Z,97305.61
2019-06-27T18:46:21.229Z,97311.54
2019-06-27T18:48:52.925Z,97316.95
2019-06-27T18:51:23.110Z,97318.30
2019-06-27T18:53:53.271Z,97325.05
2019-06-27T18:56:23.553Z,97325.89
2019-06-27T18:58:53.839Z,97317.30
2019-06-27T19:01:24.043Z,97323.70
2019-06-27T19:03:54.214Z,97325.05
2019-06-27T19:06:24.369Z,97317.42
2019-06-27T19:08:54.633Z,97330.05
2019-06-27T19:11:24.800Z,97339.52
2019-06-27T19:13:54.979Z,97338.64
2019-06-27T19:16:25.191Z,97345.41
2019-06-27T19:18:58.501Z,97355.39
2019-06-27T19:21:47.634Z,97355.39
2019-06-27T19:24:43.880Z,97360.41
2019-06-27T19:27:14.127Z,97356.00
2019-06-27T19:29:44.294Z,97363.11
2019-06-27T19:32:14.454Z,97366.30
2019-06-27T19:34:44.968Z,97363.11
2019-06-27T19:37:15.112Z,97357.70
2019-06-27T19:39:45.325Z,97364.85
2019-06-27T19:42:15.483Z,97357.70
2019-06-27T19:44:46.034Z,97353.17
2019-06-27T19:47:16.230Z,97355.00
2019-06-27T19:49:46.436Z,97368.03
2019-06-27T19:52:16.676Z,97373.45
2019-06-27T19:54:46.964Z,97374.80
2019-06-27T19:57:17.735Z,97379.20
2019-06-27T19:59:47.963Z,97389.19
2019-06-27T20:02:18.635Z,97388.67
2019-06-27T20:04:48.968Z,97384.61
2019-06-27T20:07:19.437Z,97388.60
2019-06-27T20:09:49.825Z,97384.28
2019-06-27T20:12:20.384Z,97390.67
2019-06-27T20:14:50.912Z,97398.52
2019-06-27T20:17:21.348Z,97399.15
2019-06-27T20:19:51.633Z,97397.17
2019-06-27T20:22:21.983Z,97398.88
2019-06-27T20:24:52.464Z,97408.73
2019-06-27T20:27:22.997Z,97417.33
2019-06-27T20:29:53.360Z,97422.74
2019-06-27T20:32:23.791Z,97418.69
2019-06-27T20:34:54.173Z,97417.33
2019-06-27T20:37:26.937Z,97421.75
2019-06-27T20:39:56.696Z,97424.09
2019-06-27T20:42:26.926Z,97428.03
2019-06-27T20:44:57.305Z,97425.84
2019-06-27T20:47:30.878Z,97414.51
2019-06-27T20:50:01.491Z,97410.97
2019-06-27T20:52:32.153Z,97429.28
2019-06-27T20:55:04.111Z,97423.00
2019-06-27T20:57:34.355Z,97429.64
2019-06-27T21:00:04.982Z,97436.52
2019-06-27T21:02:35.403Z,97433.69
2019-06-27T21:05:05.984Z,97437.63
2019-06-27T21:07:36.432Z,97435.91
2019-06-27T21:10:06.902Z,97443.27
2019-06-27T21:12:37.183Z,97445.45
2019-06-27T21:15:07.571Z,97434.92
2019-06-27T21:17:37.857Z,97425.46
2019-06-27T21:20:08.099Z,97432.60
2019-06-27T21:22:38.621Z,97443.64
2019-06-27T21:25:09.025Z,97439.58
2019-06-27T21:27:39.387Z,97449.56
2019-06-27T21:30:09.836Z,97454.36
2019-06-27T21:32:40.175Z,97448.33
2019-06-27T21:35:10.556Z,97450.52
2019-06-27T21:37:40.978Z,97453.11
2019-06-27T21:40:11.742Z,97445.47
2019-06-27T21:42:42.016Z,97450.99
2019-06-27T21:45:12.405Z,97452.83
2019-06-27T21:47:42.739Z,97446.43
2019-06-27T21:50:13.152Z,97448.52
2019-06-27T21:52:43.375Z,97451.86
2019-06-27T21:55:13.726Z,97453.97
2019-06-27T21:57:43.928Z,97455.06
2019-06-27T22:00:14.590Z,97450.66
2019-06-27T22:02:46.616Z,97451.14
2019-06-27T22:05:17.107Z,97450.27
2019-06-27T22:07:47.391Z,97447.70
2019-06-27T22:10:18.290Z,97444.12
2019-06-27T22:12:48.634Z,97445.97
2019-06-27T22:15:19.034Z,97448.32
2019-06-27T22:17:49.288Z,97446.48
2019-06-27T22:20:19.614Z,97448.32
2019-06-27T22:22:49.855Z,97444.01
2019-06-27T22:25:20.154Z,97448.45
2019-06-27T22:27:50.685Z,97452.99
2019-06-27T22:30:21.044Z,97450.77
2019-06-27T22:32:51.463Z,97451.25
2019-06-27T22:35:22.019Z,97453.61
2019-06-27T22:38:09.856Z,97449.55
2019-06-27T22:40:57.927Z,97446.47
2019-06-27T22:43:45.991Z,97448.81
2019-06-27T22:46:34.041Z,97447.47
2019-06-27T22:49:03.278Z,97449.30
2019-06-27T22:51:58.283Z,97439.97
2019-06-27T22:54:29.761Z,97437.75
2019-06-27T22:57:00.151Z,97441.32
2019-06-27T22:59:30.447Z,97450.05
2019-06-27T23:02:00.755Z,97452.75
2019-06-27T23:04:31.172Z,97457.30
2019-06-27T23:07:01.417Z,97451.88
2019-06-27T23:09:31.752Z,97453.23
2019-06-27T23:12:02.131Z,97449.66
2019-06-27T23:14:32.481Z,97452.88
2019-06-27T23:17:02.910Z,97446.61
2019-06-27T23:19:33.249Z,97440.20
2019-06-27T23:22:03.474Z,97438.11
2019-06-27T23:24:34.787Z,97444.88
2019-06-27T23:27:05.216Z,97443.03
2019-06-27T23:29:35.536Z,97442.17
2019-06-27T23:32:05.795Z,97444.88
2019-06-27T23:34:36.244Z,97433.70
2019-06-27T23:37:06.518Z,97436.41
2019-06-27T23:39:36.759Z,97435.92
2019-06-27T23:42:07.227Z,97431.94
2019-06-27T23:44:37.479Z,97423.82
2019-06-27T23:47:07.825Z,97422.12
2019-06-27T23:49:38.229Z,97420.28
2019-06-27T23:52:08.518Z,97421.25
2019-06-27T23:54:38.878Z,97427.52
2019-06-27T23:57:09.336Z,97422.12
2019-06-27T23:59:39.633Z,97416.84
